Time;durP1;ratioP1;P1;durP2;ratioP2;P2;SDS_P1;SDS_P2;PMS_P1;PMS_P2;Temp;Humidity;BMP_temperature;BMP_pressure;BME280_temperature;BME280_humidity;BME280_pressure;Samples;Min_cycle;Max_cycle;Signal;HPM_P1;HPM_P2
2022/11/09 00:01:43;;;;;;;9.27;1.02;;;;;;;8.12;100.00;98210.56;5068923;28;20484;-88
2022/11/09 00:04:13;;;;;;;5.28;1.20;;;;;;;8.10;100.00;98215.16;5078852;28;20036;-87
2022/11/09 00:06:42;;;;;;;8.82;1.42;;;;;;;8.05;100.00;98207.81;5097282;28;20032;-88
2022/11/09 00:09:10;;;;;;;6.47;1.08;;;;;;;8.02;100.00;98223.97;5065791;28;20030;-88
2022/11/09 00:11:40;;;;;;;2.70;0.85;;;;;;;8.03;100.00;98223.78;5068330;28;20032;-91
2022/11/09 00:14:14;;;;;;;6.72;1.48;;;;;;;8.02;100.00;98230.06;5090884;28;20498;-90
2022/11/09 00:16:44;;;;;;;5.70;0.90;;;;;;;7.98;100.00;98235.88;5070033;27;20035;-87
2022/11/09 00:19:14;;;;;;;7.65;1.30;;;;;;;7.97;100.00;98228.97;5077521;28;20069;-87
2022/11/09 00:21:44;;;;;;;4.88;1.00;;;;;;;7.96;100.00;98241.31;5080815;28;20032;-90
2022/11/09 00:24:14;;;;;;;4.15;1.05;;;;;;;7.93;100.00;98239.06;5065857;28;20027;-90
2022/11/09 00:26:44;;;;;;;3.35;0.60;;;;;;;7.92;100.00;98242.66;5095338;28;20036;-91
2022/11/09 00:29:14;;;;;;;2.80;0.68;;;;;;;7.91;100.00;98244.50;5069958;28;20032;-90
2022/11/09 00:31:44;;;;;;;3.05;0.90;;;;;;;7.90;100.00;98247.31;5085353;28;20028;-90
2022/11/09 00:34:16;;;;;;;5.20;0.90;;;;;;;7.86;100.00;98246.84;5094169;28;20123;-91
2022/11/09 00:36:44;;;;;;;5.88;1.08;;;;;;;7.81;100.00;98257.09;5091263;28;20392;-90
2022/11/09 00:39:12;;;;;;;2.45;0.70;;;;;;;7.80;100.00;98258.91;5094490;28;20110;-90
2022/11/09 00:41:39;;;;;;;3.15;1.20;;;;;;;7.78;100.00;98260.91;5078974;28;20468;-90
2022/11/09 00:44:07;;;;;;;4.55;1.17;;;;;;;7.76;100.00;98264.69;5076106;28;20035;-90
2022/11/09 00:46:35;;;;;;;6.88;0.55;;;;;;;7.70;100.00;98263.63;5114586;27;20032;-90
2022/11/09 00:49:03;;;;;;;4.32;0.85;;;;;;;7.70;100.00;98271.50;5093595;28;20031;-90
2022/11/09 00:51:31;;;;;;;8.00;1.02;;;;;;;7.69;100.00;98270.66;5099197;28;20483;-90
2022/11/09 00:53:59;;;;;;;3.17;0.68;;;;;;;7.70;100.00;98274.13;5087030;27;20035;-88
2022/11/09 00:56:27;;;;;;;2.63;0.88;;;;;;;7.67;100.00;98280.56;5075238;28;20508;-88
2022/11/09 00:58:56;;;;;;;5.68;0.60;;;;;;;7.69;100.00;98288.28;5080454;28;20036;-79
2022/11/09 01:01:26;;;;;;;5.88;0.73;;;;;;;7.68;100.00;98282.19;5078525;28;20483;-88
2022/11/09 01:03:55;;;;;;;6.13;0.70;;;;;;;7.68;100.00;98278.75;5100832;28;20034;-90
2022/11/09 01:06:26;;;;;;;7.93;1.40;;;;;;;7.72;100.00;98292.34;5084522;28;20046;-90
2022/11/09 01:08:56;;;;;;;9.02;1.35;;;;;;;7.67;100.00;98293.72;5084948;28;20039;-90
2022/11/09 01:11:25;;;;;;;4.78;1.00;;;;;;;7.67;100.00;98287.63;5076870;28;20038;-90
2022/11/09 01:13:58;;;;;;;9.65;1.98;;;;;;;7.69;100.00;98294.34;5109398;28;20046;-90
2022/11/09 01:16:27;;;;;;;6.47;1.10;;;;;;;7.70;100.00;98287.28;5076653;28;20036;-90
2022/11/09 01:18:57;;;;;;;11.00;1.50;;;;;;;7.70;100.00;98284.66;5104801;28;20031;-87
2022/11/09 01:21:26;;;;;;;8.52;1.42;;;;;;;7.71;100.00;98293.38;5104767;28;20035;-88
2022/11/09 01:23:55;;;;;;;6.88;1.15;;;;;;;7.69;100.00;98302.22;5074201;28;20028;-87
2022/11/09 01:26:23;;;;;;;11.15;1.50;;;;;;;7.69;100.00;98298.81;5074586;28;20036;-88
2022/11/09 01:28:51;;;;;;;4.22;1.27;;;;;;;7.67;100.00;98303.41;5091394;28;20506;-88
2022/11/09 01:31:20;;;;;;;5.18;1.30;;;;;;;7.66;100.00;98294.69;5074546;28;20035;-88
2022/11/09 01:33:48;;;;;;;9.07;1.35;;;;;;;7.64;100.00;98299.34;5091491;28;20032;-90
2022/11/09 01:36:19;;;;;;;17.45;1.77;;;;;;;7.66;100.00;98299.97;5088930;28;20028;-90
2022/11/09 01:38:47;;;;;;;9.77;1.52;;;;;;;7.66;100.00;98313.09;5093765;28;20034;-88
2022/11/09 01:41:25;;;;;;;12.95;1.85;;;;;;;7.65;100.00;98311.47;5094665;28;20062;-88
2022/11/09 01:44:13;;;;;;;14.85;1.65;;;;;;;7.63;100.00;98321.34;5074441;28;20040;-90
2022/11/09 01:46:53;;;;;;;12.10;1.67;;;;;;;7.58;100.00;98315.81;5098311;28;20471;-88
2022/11/09 01:49:39;;;;;;;8.25;2.00;;;;;;;7.54;100.00;98318.00;5088478;28;20036;-88
2022/11/09 01:52:21;;;;;;;9.95;1.65;;;;;;;7.52;100.00;98327.84;5072263;28;20047;-88
2022/11/09 01:55:04;;;;;;;5.85;1.33;;;;;;;7.51;100.00;98325.41;5080196;28;20040;-88
2022/11/09 01:57:38;;;;;;;8.20;1.45;;;;;;;7.50;100.00;98331.66;5085464;28;20051;-88
2022/11/09 02:00:12;;;;;;;13.13;1.63;;;;;;;7.48;100.00;98339.72;5111631;27;20371;-88
2022/11/09 02:02:53;;;;;;;14.77;1.88;;;;;;;7.46;100.00;98344.34;5078596;28;20031;-88
2022/11/09 02:05:28;;;;;;;7.78;1.77;;;;;;;7.45;100.00;98355.84;5091768;28;20380;-88
2022/11/09 02:08:00;;;;;;;17.02;2.05;;;;;;;7.43;100.00;98349.94;5065290;28;20039;-90
2022/11/09 02:10:42;;;;;;;9.65;1.40;;;;;;;7.43;100.00;98365.72;5110231;28;20028;-90
2022/11/09 02:13:15;;;;;;;5.55;1.45;;;;;;;7.41;100.00;98372.94;5103964;27;20498;-91
2022/11/09 02:15:45;;;;;;;6.03;1.02;;;;;;;7.38;100.00;98368.03;5089189;28;20043;-90
2022/11/09 02:18:17;;;;;;;6.30;1.10;;;;;;;7.42;100.00;98371.97;5119043;27;20029;-88
2022/11/09 02:20:55;;;;;;;7.47;1.08;;;;;;;7.43;100.00;98378.84;5076230;28;20028;-88
2022/11/09 02:23:26;;;;;;;7.32;1.27;;;;;;;7.41;100.00;98379.03;5097092;28;20039;-90
2022/11/09 02:26:00;;;;;;;7.68;1.17;;;;;;;7.39;100.00;98381.00;5114785;28;20032;-90
2022/11/09 02:28:28;;;;;;;6.00;1.20;;;;;;;7.37;100.00;98388.28;5097456;27;20100;-88
2022/11/09 02:30:57;;;;;;;6.93;1.38;;;;;;;7.38;100.00;98392.53;5088425;28;20072;-88
2022/11/09 02:33:25;;;;;;;15.43;2.08;;;;;;;7.38;100.00;98391.69;5096465;28;20084;-88
2022/11/09 02:35:57;;;;;;;7.15;1.05;;;;;;;7.44;100.00;98401.50;5096429;28;20043;-88
2022/11/09 02:38:25;;;;;;;7.93;1.00;;;;;;;7.47;100.00;98406.41;5080136;28;20457;-88
2022/11/09 02:40:53;;;;;;;9.10;1.15;;;;;;;7.45;100.00;98411.84;5079774;28;20395;-88
2022/11/09 02:43:25;;;;;;;7.13;1.10;;;;;;;7.46;100.00;98399.53;5081257;28;20039;-89
2022/11/09 02:45:55;;;;;;;6.63;1.10;;;;;;;7.44;100.00;98407.59;5072489;28;20043;-91
2022/11/09 02:48:25;;;;;;;8.27;1.13;;;;;;;7.44;100.00;98401.50;5076128;28;20039;-88
2022/11/09 02:50:55;;;;;;;7.80;1.05;;;;;;;7.45;100.00;98409.22;5079681;28;20103;-88
2022/11/09 02:53:24;;;;;;;7.28;0.95;;;;;;;7.46;100.00;98412.69;5083802;28;20096;-88
2022/11/09 02:55:53;;;;;;;6.35;0.75;;;;;;;7.44;100.00;98412.03;5079305;28;20042;-88
2022/11/09 02:58:21;;;;;;;9.27;0.75;;;;;;;7.32;100.00;98409.81;5087677;28;20131;-90
2022/11/09 03:00:49;;;;;;;10.45;0.98;;;;;;;7.34;100.00;98414.06;5091804;28;20035;-91
2022/11/09 03:03:17;;;;;;;10.20;1.60;;;;;;;7.36;100.00;98422.63;5096368;28;20036;-88
2022/11/09 03:05:44;;;;;;;8.90;0.90;;;;;;;7.35;100.00;98416.53;5077652;28;20039;-88
2022/11/09 03:08:13;;;;;;;14.18;1.02;;;;;;;7.36;100.00;98425.25;5082224;28;20043;-90
2022/11/09 03:10:43;;;;;;;7.40;0.77;;;;;;;7.38;100.00;98423.25;5094109;28;20036;-90
2022/11/09 03:13:12;;;;;;;10.65;1.08;;;;;;;7.36;100.00;98420.78;5079402;28;20043;-90
2022/11/09 03:15:40;;;;;;;11.55;1.08;;;;;;;7.35;100.00;98421.78;5080025;28;20031;-90
2022/11/09 03:18:09;;;;;;;7.07;1.38;;;;;;;7.40;100.00;98421.25;5076397;28;20373;-88
2022/11/09 03:20:37;;;;;;;6.22;0.90;;;;;;;7.38;100.00;98433.75;5067915;28;20084;-88
2022/11/09 03:23:05;;;;;;;7.38;1.02;;;;;;;7.40;100.00;98440.50;5094545;28;20126;-88
2022/11/09 03:25:35;;;;;;;8.80;1.13;;;;;;;7.42;100.00;98443.75;5092546;28;20041;-87
2022/11/09 03:28:08;;;;;;;6.03;0.70;;;;;;;7.45;100.00;98445.22;5090752;28;20040;-90
2022/11/09 03:30:38;;;;;;;7.22;0.90;;;;;;;7.44;100.00;98447.03;5112994;28;20035;-90
2022/11/09 03:33:13;;;;;;;5.35;0.65;;;;;;;7.43;100.00;98455.91;5105515;28;20027;-87
2022/11/09 03:35:42;;;;;;;;;;;;;;;7.35;100.00;98463.84;5092251;28;20070;-88
2022/11/09 03:38:12;;;;;;;8.20;0.80;;;;;;;7.38;100.00;98471.38;5093556;28;19911;-88
2022/11/09 03:40:40;;;;;;;5.80;1.00;;;;;;;7.40;100.00;98469.41;5075653;28;20077;-88
2022/11/09 03:43:08;;;;;;;7.43;0.80;;;;;;;7.40;100.00;98473.81;5078961;28;20031;-89
2022/11/09 03:45:36;;;;;;;9.50;1.00;;;;;;;7.41;100.00;98463.13;5094213;28;20119;-88
2022/11/09 03:48:04;;;;;;;9.40;0.98;;;;;;;7.38;100.00;98471.38;5095285;28;20035;-88
2022/11/09 03:50:39;;;;;;;8.65;1.00;;;;;;;7.42;100.00;98474.50;5077246;28;20389;-88
2022/11/09 03:53:09;;;;;;;5.82;0.85;;;;;;;7.42;100.00;98472.66;5075627;28;20075;-89
2022/11/09 03:55:39;;;;;;;7.22;1.67;;;;;;;7.43;100.00;98486.63;5067928;28;20415;-89
2022/11/09 03:58:07;;;;;;;9.35;1.45;;;;;;;7.42;100.00;98493.69;5093990;28;20532;-89
2022/11/09 04:00:35;;;;;;;5.18;0.95;;;;;;;7.41;100.00;98496.47;5080669;28;20567;-90
2022/11/09 04:03:03;;;;;;;8.38;0.90;;;;;;;7.37;100.00;98509.16;5094094;28;20047;-92
2022/11/09 04:05:31;;;;;;;8.45;0.73;;;;;;;7.38;100.00;98510.81;5106601;28;20039;-92
2022/11/09 04:07:59;;;;;;;5.78;1.33;;;;;;;7.41;100.00;98514.88;5078776;28;20095;-88
2022/11/09 04:10:29;;;;;;;8.15;0.93;;;;;;;7.46;100.00;98517.81;5093853;28;20476;-89
2022/11/09 04:12:59;;;;;;;10.02;1.00;;;;;;;7.50;100.00;98519.09;5076324;28;20035;-89
2022/11/09 04:15:30;;;;;;;6.03;0.82;;;;;;;7.53;100.00;98518.75;5094153;28;20031;-89
2022/11/09 04:18:01;;;;;;;9.45;1.05;;;;;;;7.56;100.00;98521.03;5071886;28;20066;-92
2022/11/09 04:20:32;;;;;;;5.63;0.85;;;;;;;7.59;100.00;98512.00;5074646;28;20361;-91
2022/11/09 04:23:03;;;;;;;5.63;0.82;;;;;;;7.60;100.00;98526.00;5089060;28;20598;-89
2022/11/09 04:25:36;;;;;;;10.35;0.70;;;;;;;7.60;100.00;98531.25;5073487;28;20075;-89
2022/11/09 04:28:10;;;;;;;8.73;1.00;;;;;;;7.60;100.00;98531.25;5092823;28;20096;-91
2022/11/09 04:30:41;;;;;;;9.93;0.95;;;;;;;7.57;100.00;98540.28;5097521;28;20027;-91
2022/11/09 04:33:11;;;;;;;8.57;1.30;;;;;;;7.56;100.00;98533.41;5096892;28;20032;-88
2022/11/09 04:35:41;;;;;;;8.75;1.38;;;;;;;7.55;100.00;98545.72;5092735;28;20144;-88
2022/11/09 04:38:12;;;;;;;5.93;1.05;;;;;;;7.55;100.00;98547.50;5085819;27;20030;-89
2022/11/09 04:40:40;;;;;;;7.05;1.30;;;;;;;7.50;100.00;98549.84;5112079;28;20069;-89
2022/11/09 04:43:14;;;;;;;6.28;1.35;;;;;;;7.48;100.00;98554.44;5094544;28;20444;-89
2022/11/09 04:45:46;;;;;;;9.77;1.35;;;;;;;7.42;100.00;98551.50;5078277;27;20035;-89
2022/11/09 04:48:14;;;;;;;10.02;1.05;;;;;;;7.41;100.00;98567.44;5077657;28;20038;-88
2022/11/09 04:50:42;;;;;;;9.23;1.00;;;;;;;7.37;100.00;98574.88;5112612;28;20028;-89
2022/11/09 04:53:14;;;;;;;6.45;1.13;;;;;;;7.37;100.00;98587.19;5095838;28;20028;-88
2022/11/09 04:55:44;;;;;;;8.10;1.42;;;;;;;7.36;100.00;98586.38;5095312;28;20032;-89
2022/11/09 04:58:14;;;;;;;10.35;0.70;;;;;;;7.33;100.00;98586.69;5086335;28;20510;-91
2022/11/09 05:00:43;;;;;;;6.40;0.70;;;;;;;7.37;100.00;98584.56;5103564;28;20058;-91
2022/11/09 05:03:12;;;;;;;10.85;1.38;;;;;;;7.38;100.00;98584.41;5089715;28;20381;-88
2022/11/09 05:05:41;;;;;;;5.85;0.98;;;;;;;7.38;100.00;98586.19;5090936;28;20579;-88
2022/11/09 05:08:11;;;;;;;5.05;0.65;;;;;;;7.37;100.00;98585.41;5076964;28;20074;-89
2022/11/09 05:10:40;;;;;;;9.60;1.40;;;;;;;7.32;100.00;98591.16;5094687;28;20114;-88
2022/11/09 05:13:12;;;;;;;7.93;0.70;;;;;;;7.25;100.00;98592.81;5092941;28;20039;-89
2022/11/09 05:15:42;;;;;;;6.55;0.75;;;;;;;7.21;100.00;98602.03;5097337;28;20042;-89
2022/11/09 05:18:12;;;;;;;7.90;0.90;;;;;;;7.16;100.00;98609.59;5108870;28;20055;-89
2022/11/09 05:20:42;;;;;;;6.05;0.70;;;;;;;7.12;100.00;98605.66;5098745;28;20313;-89
2022/11/09 05:25:59;;;;;;;7.50;0.85;;;;;;;7.04;100.00;98609.94;5114383;28;20027;-89
2022/11/09 05:28:27;;;;;;;6.00;1.17;;;;;;;6.97;100.00;98608.13;5095342;28;20035;-90
2022/11/09 05:30:54;;;;;;;1.90;0.45;;;;;;;6.98;100.00;98615.03;5082519;28;20047;-91
2022/11/09 05:33:22;;;;;;;7.90;0.63;;;;;;;6.94;100.00;98610.09;5097520;28;20031;-89
2022/11/09 05:35:52;;;;;;;7.15;1.10;;;;;;;6.97;100.00;98622.09;5114961;28;20066;-89
2022/11/09 05:38:20;;;;;;;6.22;0.90;;;;;;;6.94;100.00;98627.69;5094983;28;20031;-89
2022/11/09 05:40:49;;;;;;;4.68;0.68;;;;;;;6.96;100.00;98628.31;5108017;28;20051;-89
2022/11/09 05:43:17;;;;;;;4.63;0.73;;;;;;;6.96;100.00;98625.69;5097259;28;20028;-89
2022/11/09 05:45:46;;;;;;;5.07;0.70;;;;;;;6.99;100.00;98624.56;5077546;28;20059;-89
2022/11/09 05:48:16;;;;;;;5.63;0.60;;;;;;;6.98;100.00;98626.34;5098260;28;20049;-89
2022/11/09 05:50:44;;;;;;;7.93;1.00;;;;;;;6.96;100.00;98625.69;5094697;28;20492;-88
2022/11/09 05:53:20;;;;;;;3.33;0.57;;;;;;;6.91;100.00;98630.66;5097616;28;20031;-89
2022/11/09 05:55:47;;;;;;;4.25;0.80;;;;;;;6.85;100.00;98637.38;5096034;28;20081;-88
2022/11/09 05:58:14;;;;;;;5.95;0.70;;;;;;;6.83;100.00;98642.78;5096542;28;20047;-89
2022/11/09 06:00:43;;;;;;;3.88;0.50;;;;;;;6.80;100.00;98652.81;5088015;28;20081;-89
2022/11/09 06:03:11;;;;;;;0.88;0.38;;;;;;;6.80;100.00;98653.63;5076929;28;20391;-89
2022/11/09 06:05:40;;;;;;;6.57;0.80;;;;;;;6.77;100.00;98667.06;5110293;28;20032;-88
2022/11/09 06:08:12;;;;;;;4.53;0.47;;;;;;;6.81;100.00;98668.41;5112324;28;20495;-88
2022/11/09 06:10:42;;;;;;;4.45;0.70;;;;;;;6.81;100.00;98660.53;5096933;28;20036;-89
2022/11/09 06:13:08;;;;;;;7.30;0.57;;;;;;;6.87;100.00;98673.97;5101890;27;20042;-88
2022/11/09 06:15:37;;;;;;;5.93;1.02;;;;;;;6.87;100.00;98681.84;5080707;28;20031;-88
2022/11/09 06:18:05;;;;;;;5.32;0.50;;;;;;;6.89;100.00;98690.38;5094904;28;20028;-87
2022/11/09 06:20:33;;;;;;;5.45;0.90;;;;;;;6.86;100.00;98680.22;5093475;28;20127;-88
2022/11/09 06:23:02;;;;;;;5.03;0.63;;;;;;;6.90;100.00;98692.84;5074477;28;20039;-90
2022/11/09 06:25:31;;;;;;;4.20;0.57;;;;;;;6.89;100.00;98693.84;5076990;28;20069;-90
2022/11/09 06:27:59;;;;;;;3.65;0.45;;;;;;;6.89;100.00;98698.28;5082943;28;20034;-89
2022/11/09 06:30:27;;;;;;;4.20;0.55;;;;;;;6.89;100.00;98699.09;5077365;28;20031;-89
2022/11/09 06:33:01;;;;;;;4.10;0.50;;;;;;;6.92;100.00;98690.06;5080435;28;20081;-88
2022/11/09 06:35:30;;;;;;;5.40;0.63;;;;;;;6.87;100.00;98690.56;5067506;28;20395;-89
2022/11/09 06:37:58;;;;;;;3.03;0.90;;;;;;;6.93;100.00;98710.91;5093325;27;20027;-87
2022/11/09 06:40:28;;;;;;;6.55;1.00;;;;;;;6.94;100.00;98706.47;5080654;28;20043;-88
2022/11/09 06:42:59;;;;;;;5.80;0.73;;;;;;;6.98;100.00;98710.41;5079342;27;20775;-88
2022/11/09 06:45:29;;;;;;;8.57;0.80;;;;;;;6.98;100.00;98709.59;5078247;28;20035;-89
2022/11/09 06:47:58;;;;;;;10.38;0.88;;;;;;;7.00;100.00;98702.38;5090042;28;20480;-89
2022/11/09 06:50:29;;;;;;;8.13;0.77;;;;;;;7.00;100.00;98713.72;5077994;28;20035;-89
2022/11/09 06:52:58;;;;;;;8.57;1.13;;;;;;;7.04;100.00;98719.47;5085399;28;20383;-88
2022/11/09 06:55:27;;;;;;;7.40;0.90;;;;;;;7.02;100.00;98724.88;5091620;28;20074;-88
2022/11/09 06:58:00;;;;;;;5.20;0.70;;;;;;;7.04;100.00;98722.91;5078745;28;20511;-89
2022/11/09 07:00:30;;;;;;;6.55;0.77;;;;;;;7.05;100.00;98716.66;5102523;28;20036;-88
2022/11/09 07:03:00;;;;;;;8.90;1.08;;;;;;;7.09;100.00;98732.09;5079802;28;20104;-88
2022/11/09 07:05:30;;;;;;;9.55;0.73;;;;;;;7.10;100.00;98723.22;5089526;28;20034;-90
2022/11/09 07:08:00;;;;;;;4.38;0.50;;;;;;;7.13;100.00;98736.03;5087953;27;20484;-88
2022/11/09 07:10:29;;;;;;;8.80;0.95;;;;;;;7.13;100.00;98736.88;5096014;28;20061;-88
2022/11/09 07:12:58;;;;;;;4.97;0.90;;;;;;;7.19;100.00;98748.50;5090936;28;20522;-89
2022/11/09 07:15:26;;;;;;;6.32;0.70;;;;;;;7.20;100.00;98756.22;5099448;28;20038;-89
2022/11/09 07:17:56;;;;;;;9.18;0.98;;;;;;;7.24;100.00;98755.91;5093012;28;20052;-88
2022/11/09 07:20:25;;;;;;;5.07;0.52;;;;;;;7.24;100.00;98764.63;5092035;27;20077;-88
2022/11/09 07:22:53;;;;;;;8.88;0.65;;;;;;;7.28;100.00;98776.44;5078979;27;20103;-87
2022/11/09 07:25:21;;;;;;;4.75;0.73;;;;;;;7.31;100.00;98791.88;5093408;27;20035;-89
2022/11/09 07:27:49;;;;;;;6.50;0.60;;;;;;;7.35;100.00;98791.53;5076498;28;20032;-87
2022/11/09 07:30:17;;;;;;;5.25;0.50;;;;;;;7.37;100.00;98797.47;5074177;28;20097;-86
2022/11/09 07:32:47;;;;;;;4.90;0.90;;;;;;;7.41;100.00;98794.34;5090309;27;20118;-86
2022/11/09 07:35:16;;;;;;;7.70;0.63;;;;;;;7.46;100.00;98793.84;5099034;28;20015;-87
2022/11/09 07:37:42;;;;;;;7.72;0.98;;;;;;;7.47;100.00;98794.69;5075219;28;20040;-86
2022/11/09 07:40:12;;;;;;;6.93;0.50;;;;;;;7.48;100.00;98806.81;5091178;28;20027;-87
2022/11/09 07:42:39;;;;;;;8.18;1.00;;;;;;;7.47;100.00;98806.00;5091512;28;20479;-87
2022/11/09 07:45:08;;;;;;;3.65;0.43;;;;;;;7.52;100.00;98824.72;5069408;28;20024;-86
2022/11/09 07:47:34;;;;;;;4.13;0.50;;;;;;;7.51;100.00;98817.00;5103231;27;20085;-87
2022/11/09 07:50:04;;;;;;;3.55;0.70;;;;;;;7.54;100.00;98821.94;5098668;28;20043;-88
2022/11/09 07:52:31;;;;;;;5.90;0.60;;;;;;;7.53;100.00;98829.00;5073602;28;20434;-88
2022/11/09 07:55:00;;;;;;;3.58;0.52;;;;;;;7.54;100.00;98830.66;5045471;28;20084;-88
2022/11/09 07:57:28;;;;;;;4.85;0.75;;;;;;;7.55;100.00;98845.44;5071557;28;20055;-88
2022/11/09 07:59:58;;;;;;;5.38;0.63;;;;;;;7.59;100.00;98850.38;5092104;28;20069;-87
2022/11/09 08:02:28;;;;;;;8.00;0.98;;;;;;;7.59;100.00;98859.09;5069057;27;20108;-87
2022/11/09 08:04:58;;;;;;;5.18;0.50;;;;;;;7.58;100.00;98860.06;5093497;28;20116;-88
2022/11/09 08:07:28;;;;;;;4.68;0.77;;;;;;;7.52;100.00;98861.53;5088328;28;20507;-89
2022/11/09 08:09:58;;;;;;;8.23;0.75;;;;;;;7.47;100.00;98869.09;5104758;28;20043;-90
2022/11/09 08:12:27;;;;;;;4.32;0.70;;;;;;;7.47;100.00;98881.44;5078376;27;20055;-88
2022/11/09 08:14:55;;;;;;;5.10;0.98;;;;;;;7.39;100.00;98883.06;5107447;28;20032;-88
2022/11/09 08:17:22;;;;;;;5.05;0.60;;;;;;;7.39;100.00;98887.50;5094863;28;20138;-87
2022/11/09 08:19:50;;;;;;;4.70;0.50;;;;;;;7.36;100.00;98893.09;5093213;28;20067;-87
2022/11/09 08:22:18;;;;;;;4.40;0.52;;;;;;;7.35;100.00;98894.06;5104577;28;20079;-89
2022/11/09 08:24:45;;;;;;;9.93;0.60;;;;;;;7.32;100.00;98906.56;5103744;27;20023;-89
2022/11/09 08:27:13;;;;;;;2.40;0.38;;;;;;;7.36;100.00;98906.22;5086244;28;20035;-90
2022/11/09 08:29:41;;;;;;;7.80;0.80;;;;;;;7.38;100.00;98896.34;5088279;28;20043;-88
2022/11/09 08:32:10;;;;;;;6.20;0.63;;;;;;;7.45;100.00;98903.44;5094248;28;20080;-88
2022/11/09 08:34:38;;;;;;;4.97;0.47;;;;;;;7.49;100.00;98911.00;5081811;28;20072;-87
2022/11/09 08:37:06;;;;;;;4.35;0.68;;;;;;;7.59;100.00;98919.56;5086756;28;20036;-89
2022/11/09 08:39:34;;;;;;;9.27;0.70;;;;;;;7.61;100.00;98916.78;5091250;28;20500;-89
2022/11/09 08:42:01;;;;;;;5.80;0.60;;;;;;;7.66;100.00;98925.81;5093690;28;20031;-87
2022/11/09 08:44:29;;;;;;;8.02;0.65;;;;;;;7.66;100.00;98925.81;5087875;28;20488;-87
2022/11/09 08:46:57;;;;;;;3.05;0.40;;;;;;;7.69;100.00;98927.31;5104226;28;20388;-88
2022/11/09 08:49:25;;;;;;;7.38;0.80;;;;;;;7.72;100.00;98931.41;5087044;28;20060;-87
2022/11/09 08:51:54;;;;;;;5.40;1.02;;;;;;;7.78;100.00;98931.59;5072052;28;20070;-88
2022/11/09 08:54:23;;;;;;;10.38;1.08;;;;;;;7.88;100.00;98930.59;5074102;28;20036;-87
2022/11/09 08:56:54;;;;;;;6.68;0.68;;;;;;;7.91;100.00;98941.63;5109702;28;20039;-87
2022/11/09 08:59:24;;;;;;;7.25;0.95;;;;;;;7.99;100.00;98945.22;5108523;28;20143;-88
2022/11/09 09:01:54;;;;;;;8.70;1.83;;;;;;;8.04;100.00;98945.56;5077598;28;20129;-87
2022/11/09 09:04:24;;;;;;;3.63;0.70;;;;;;;8.08;100.00;98960.03;5088059;28;20105;-88
2022/11/09 09:06:53;;;;;;;6.78;1.17;;;;;;;8.13;100.00;98957.72;5085697;28;20028;-87
2022/11/09 09:09:21;;;;;;;3.97;0.80;;;;;;;8.15;100.00;98963.66;5071842;28;20108;-88
2022/11/09 09:11:48;;;;;;;5.07;0.88;;;;;;;8.26;100.00;98969.56;5073836;28;20031;-88
2022/11/09 09:14:16;;;;;;;17.00;1.15;;;;;;;8.34;100.00;98976.63;5093387;28;20032;-88
2022/11/09 09:16:44;;;;;;;6.65;0.68;;;;;;;8.41;100.00;98977.59;5068995;28;20375;-87
2022/11/09 09:19:12;;;;;;;9.95;1.13;;;;;;;8.46;100.00;98974.50;5085500;28;20088;-88
2022/11/09 09:21:40;;;;;;;9.75;1.60;;;;;;;8.52;100.00;98974.63;5098290;28;20038;-88
2022/11/09 09:24:08;;;;;;;8.70;1.25;;;;;;;8.61;100.00;98978.09;5110718;28;20373;-87
2022/11/09 09:26:36;;;;;;;10.13;0.75;;;;;;;8.69;100.00;98987.81;5075553;28;20047;-87
2022/11/09 09:29:03;;;;;;;6.53;0.88;;;;;;;8.72;100.00;98987.47;5082944;28;20035;-88
2022/11/09 09:31:31;;;;;;;10.00;1.10;;;;;;;8.77;100.00;99000.97;5082150;28;20071;-87
2022/11/09 09:33:59;;;;;;;4.70;0.60;;;;;;;8.76;100.00;98998.50;5083648;28;20067;-87
2022/11/09 09:36:27;;;;;;;5.55;0.80;;;;;;;8.77;100.00;99003.59;5072705;28;20063;-87
2022/11/09 09:38:55;;;;;;;10.50;0.90;;;;;;;8.76;100.00;98998.50;5074308;28;20078;-91
2022/11/09 09:41:40;;;;;;;6.22;0.70;;;;;;;8.79;100.00;98992.88;5077774;28;20118;-90
2022/11/09 09:44:08;;;;;;;10.20;1.58;;;;;;;8.81;100.00;99006.69;5099513;28;20086;-87
2022/11/09 09:46:42;;;;;;;4.40;1.10;;;;;;;8.85;100.00;99012.47;5092924;28;20032;-88
2022/11/09 09:49:18;;;;;;;9.65;1.08;;;;;;;8.88;100.00;99020.03;5075169;28;20519;-87
2022/11/09 09:51:54;;;;;;;5.20;0.63;;;;;;;8.93;100.00;99012.44;5082474;28;20035;-90
2022/11/09 09:54:29;;;;;;;7.93;0.77;;;;;;;8.95;100.00;99020.19;5092028;28;20036;-90
2022/11/09 09:57:00;;;;;;;5.43;0.70;;;;;;;8.96;100.00;99027.91;5078481;28;20035;-87
2022/11/09 09:59:40;;;;;;;4.70;0.63;;;;;;;9.01;100.00;99032.69;5060840;28;20814;-88
2022/11/09 10:02:25;;;;;;;5.47;0.65;;;;;;;9.10;100.00;99034.28;5092342;28;20077;-87
2022/11/09 10:04:58;;;;;;;12.38;1.15;;;;;;;9.20;100.00;99033.28;5105453;28;20066;-87
2022/11/09 10:08:05;;;;;;;6.55;1.00;;;;;;;9.33;100.00;99038.00;5097474;28;20084;-87
2022/11/09 10:10:57;;;;;;;9.88;0.80;;;;;;;9.49;100.00;99050.31;5079647;28;20053;-87
2022/11/09 10:13:43;;;;;;;5.88;1.20;;;;;;;9.63;100.00;99059.31;5103457;27;20118;-87
2022/11/09 10:16:44;;;;;;;4.18;0.43;;;;;;;9.78;100.00;99059.38;5080804;28;20046;-87
2022/11/09 10:19:26;;;;;;;8.50;0.80;;;;;;;9.91;100.00;99059.66;5085003;28;20032;-87
2022/11/09 10:22:21;;;;;;;7.72;0.65;;;;;;;10.08;100.00;99067.44;5086337;28;20042;-91
2022/11/09 10:24:58;;;;;;;11.75;1.10;;;;;;;10.17;100.00;99073.50;5072321;28;20040;-92
2022/11/09 10:27:35;;;;;;;7.15;0.95;;;;;;;10.21;100.00;99069.50;5084176;28;20096;-91
2022/11/09 10:30:19;;;;;;;7.40;0.90;;;;;;;10.23;100.00;99077.25;5094308;28;20483;-91
2022/11/09 10:33:17;;;;;;;11.38;0.98;;;;;;;10.23;100.00;99088.66;5067632;28;20138;-87
2022/11/09 10:35:55;;;;;;;7.38;1.13;;;;;;;10.23;100.00;99085.16;5087661;28;20103;-86
2022/11/09 10:38:29;;;;;;;9.18;1.55;;;;;;;10.22;100.00;99087.00;5077497;28;20080;-88
2022/11/09 10:41:30;;;;;;;13.95;1.25;;;;;;;10.25;100.00;99086.66;5100725;28;20031;-87
2022/11/09 10:44:19;;;;;;;4.13;1.00;;;;;;;10.27;100.00;99094.41;5087202;28;20032;-86
2022/11/09 10:47:10;;;;;;;8.30;1.30;;;;;;;10.30;100.00;99097.50;5095675;28;20036;-91
2022/11/09 10:50:17;;;;;;;9.10;1.33;;;;;;;10.44;100.00;99095.09;5106829;28;20035;-92
2022/11/09 10:53:18;;;;;;;9.52;1.20;;;;;;;10.57;100.00;99097.19;5092853;28;20449;-84
2022/11/09 10:56:04;;;;;;;13.65;2.00;;;;;;;10.61;100.00;99106.38;5100345;28;20505;-85
2022/11/09 10:58:53;;;;;;;12.90;1.65;;;;;;;10.72;100.00;99115.72;5091795;28;20056;-85
2022/11/09 11:01:40;;;;;;;8.13;1.00;;;;;;;10.76;100.00;99127.59;5093372;28;20122;-88
2022/11/09 11:04:27;;;;;;;7.00;1.10;;;;;;;10.84;100.00;99129.34;5094061;28;20036;-89
2022/11/09 11:07:19;;;;;;;7.22;0.98;;;;;;;10.97;100.00;99133.19;5103292;28;20510;-85
2022/11/09 11:10:14;;;;;;;6.68;1.20;;;;;;;11.07;100.00;99135.56;5104049;27;20107;-84
2022/11/09 11:13:05;;;;;;;6.28;0.95;;;;;;;11.17;100.00;99133.47;5089122;27;20460;-84
2022/11/09 11:15:51;;;;;;;8.57;1.63;;;;;;;11.23;100.00;99145.16;5097287;28;20039;-85
2022/11/09 11:18:44;;;;;;;9.27;1.23;;;;;;;11.31;100.00;99144.28;5121861;27;20032;-84
2022/11/09 11:21:32;;;;;;;9.90;1.17;;;;;;;11.33;100.00;99144.88;5097977;28;20024;-85
2022/11/09 11:24:19;;;;;;;9.98;1.30;;;;;;;11.28;100.00;99143.63;5089759;28;20101;-88
2022/11/09 11:27:15;;;;;;;6.47;1.00;;;;;;;11.19;100.00;99139.41;5105066;28;20040;-90
2022/11/09 11:30:27;;;;;;;6.53;0.88;;;;;;;11.05;100.00;99151.63;5101099;28;20384;-89
2022/11/09 11:33:17;;;;;;;13.05;1.33;;;;;;;10.92;100.00;99150.38;5105647;28;20442;-85
2022/11/09 11:36:35;;;;;;;10.68;1.73;;;;;;;10.86;100.00;99147.66;5087849;28;20043;-85
2022/11/09 11:39:49;;;;;;;18.47;1.67;;;;;;;10.79;100.00;99150.19;5096653;28;20043;-89
2022/11/09 11:43:06;;;;;;;6.40;1.13;;;;;;;10.72;100.00;99152.72;5101192;28;20034;-85
2022/11/09 11:46:14;;;;;;;15.40;1.40;;;;;;;10.69;100.00;99158.34;5094722;28;20491;-85
2022/11/09 11:49:38;;;;;;;10.20;1.00;;;;;;;10.74;100.00;99155.16;5086747;28;20040;-85
2022/11/09 11:53:02;;;;;;;12.35;1.17;;;;;;;10.72;100.00;99170.41;5103133;27;20032;-89
2022/11/09 11:56:11;;;;;;;6.72;1.10;;;;;;;10.67;100.00;99177.03;5101816;28;20043;-89
2022/11/09 11:58:58;;;;;;;5.22;0.93;;;;;;;10.64;100.00;99168.63;5104407;28;20437;-88
2022/11/09 12:02:11;;;;;;;6.70;1.00;;;;;;;10.66;100.00;99187.78;5098321;28;20122;-89
2022/11/09 12:05:38;;;;;;;6.90;1.23;;;;;;;10.59;100.00;99170.97;5116491;27;20028;-89